الصفحة الرئيسية
METAR-TAF:

METAR-TAF

مطار :

مطار فا الدولي

تاهيتي, بولينسيا الفرنسية

دائرة عرض: 17-33S, خط طول: 149-37W, ارتفاع: 2 متر

مراقبة الطقس الحالي

تاريخ ووقت الإصدار 16 دقيقة قبل الساعة 16:30UTC
رياح هادئة
درجة الحرارة 26°درجة مئوية
الرطوبة 74%
ضغط 1012 hPa
الرؤية 10 كم أو أكثر
غيوم قليلة على ارتفاع 2300 قدم
غيوم مفككة على ارتفاع 30000 قدم

METAR: NTAA 101630Z 00000KT 9999 FEW023 BKN300 26/21 Q1012 NOSIG

زمن: 06:46 (16:46 UTC)

توقعات

تاريخ ووقت الإصدار 5ساعات و 46 دقيقة قبل الساعة 11:00UTC
التوقعات صالحة من10 الساعة 12 UTC إلى 11 الساعة 18 UTC
ريح 5 عقدةمن اتجاهات متغيرة
الرؤية 10 كم أو أكثر
غيوم قليلة على ارتفاع 2000 قدم
غيوم متفرقة على ارتفاع 14000 قدم
غيوم مفككة على ارتفاع 25000 قدم
نظرية الاحتمالات 30% :
مؤقت
من 10 الساعة 22 UTC إلى 11 الساعة 06 UTC
ريح 15 عقدة من الشمال الشرقي
الرؤية: 3000 متر
غيوم قليلة على ارتفاع 1300 قدم, مزنة ركامية.
غيوم مفككة على ارتفاع 1600 قدم
غيوم مفككة على ارتفاع 4000 قدم
زخات من المطر

TAF: NTAA 101100Z 1012/1118 VRB05KT 9999 FEW020 SCT140 BKN250 PROB30 TEMPO 1022/1106 04015KT 3000 SHRA FEW013CB BKN016 BKN040

أرصاد الطقس والتوقعات من أكثر من 4000 مطار (تقارير الطقس للمطار METAR والتنبؤ بالطقس بالمطارTAF).

المحطات المتاحة هي النقط الصفراء والحمراء على الخريطة.

حرك المؤشر فوق النقطة لمعرفة اسم المحطة.

ثم انقر لمعرفة أرصاد وتوقعات الطقس.

لتغيير الخارطة: اضغط على الأزرار الخضراء مع رمز الصليب الأسود للتكبير. على الزر الأخضر مع شرطة للتصغير، أو على الأسهم الخضراء للخرائط المجاورة.


METAR-TAF: